BKPR Airport Information

Runway Information
Runway 17 Length 8165 ft width 148 ft
Elevation 1789 ft Threshold 0 ft Heading 176
Runway 35 Length 8165 ft Width 148 ft
Elevation 1786 ft Threshold 0 ft Heading 356
Airport Frequencies
Type APP Name APP Frequency 118.775 MHZ
Type GND Name GND Frequency 118 MHZ
Type RMP Name RAMP OPR Frequency 136.8 MHZ
Type TWR Name TWR Frequency 120.125 MHZ
Airport Navaids
Airport Weather Information & NOTAM
ADDS - METARS form results

(2055 UTC 22 February 2018)
 
METAR text: BKPR 222100Z 36008KT 9999 BKN040 04/01 Q1011 NOSIG RMK 17290095
Conditions at: BKPR (PRISHTINA , CS) observed 2100 UTC 22 February 2018
Temperature: 4.0°C (39°F)
Dewpoint: 1.0°C (34°F) [RH = 81%]
Pressure (altimeter): 29.85 inches Hg (1011.0 mb)
Winds: from the N (360 degrees) at 9 MPH (8 knots; 4.2 m/s)
Visibility: 6 or more miles (10+ km)
Ceiling: 4000 feet AGL
Clouds: broken clouds at 4000 feet AGL
Weather: no significant weather observed at this time

METAR text: BKPR 222030Z 35008KT 9999 BKN040 04/00 Q1011 NOSIG RMK 17290095
Conditions at: BKPR (PRISHTINA , CS) observed 2030 UTC 22 February 2018
Temperature: 4.0°C (39°F)
Dewpoint: 0.0°C (32°F) [RH = 75%]
Pressure (altimeter): 29.85 inches Hg (1011.0 mb)
Winds: from the N (350 degrees) at 9 MPH (8 knots; 4.2 m/s)
Visibility: 6 or more miles (10+ km)
Ceiling: 4000 feet AGL
Clouds: broken clouds at 4000 feet AGL
Weather: no significant weather observed at this time

METAR text: BKPR 222000Z 34007KT 9999 BKN040 05/01 Q1011 NOSIG RMK 17290095
Conditions at: BKPR (PRISHTINA , CS) observed 2000 UTC 22 February 2018
Temperature: 5.0°C (41°F)
Dewpoint: 1.0°C (34°F) [RH = 75%]
Pressure (altimeter): 29.85 inches Hg (1011.0 mb)
Winds: from the NNW (340 degrees) at 8 MPH (7 knots; 3.6 m/s)
Visibility: 6 or more miles (10+ km)
Ceiling: 4000 feet AGL
Clouds: broken clouds at 4000 feet AGL
Weather: no significant weather observed at this time